sensor_id;sensor_type;location;lat;lon;timestamp;temperature;humidity
5459;DHT22;2752;49.992;8.422;2023-02-28T00:00:29;1.10;1.00
5459;DHT22;2752;49.992;8.422;2023-02-28T00:02:56;1.10;1.00
5459;DHT22;2752;49.992;8.422;2023-02-28T00:05:26;1.10;1.00
5459;DHT22;2752;49.992;8.422;2023-02-28T00:07:54;1.10;1.00
5459;DHT22;2752;49.992;8.422;2023-02-28T00:10:23;1.20;1.00
5459;DHT22;2752;49.992;8.422;2023-02-28T00:12:50;1.20;1.00
5459;DHT22;2752;49.992;8.422;2023-02-28T00:15:17;1.20;1.00
5459;DHT22;2752;49.992;8.422;2023-02-28T00:17:45;1.30;1.00
5459;DHT22;2752;49.992;8.422;2023-02-28T00:20:12;1.30;1.00
5459;DHT22;2752;49.992;8.422;2023-02-28T00:22:42;1.30;1.00
5459;DHT22;2752;49.992;8.422;2023-02-28T00:25:10;1.40;1.00
5459;DHT22;2752;49.992;8.422;2023-02-28T00:27:38;1.40;1.00
5459;DHT22;2752;49.992;8.422;2023-02-28T00:30:07;1.50;1.00
5459;DHT22;2752;49.992;8.422;2023-02-28T00:32:34;1.40;1.00
5459;DHT22;2752;49.992;8.422;2023-02-28T00:35:01;1.50;1.00
5459;DHT22;2752;49.992;8.422;2023-02-28T00:37:28;1.50;1.00
5459;DHT22;2752;49.992;8.422;2023-02-28T00:39:56;1.50;1.00
5459;DHT22;2752;49.992;8.422;2023-02-28T00:42:23;1.60;1.00
5459;DHT22;2752;49.992;8.422;2023-02-28T00:44:50;1.90;1.00
5459;DHT22;2752;49.992;8.422;2023-02-28T00:47:17;1.70;1.00
5459;DHT22;2752;49.992;8.422;2023-02-28T00:49:43;1.70;1.00
5459;DHT22;2752;49.992;8.422;2023-02-28T00:52:10;1.70;1.00
5459;DHT22;2752;49.992;8.422;2023-02-28T00:54:37;1.60;1.00
5459;DHT22;2752;49.992;8.422;2023-02-28T00:57:04;1.60;1.00
5459;DHT22;2752;49.992;8.422;2023-02-28T00:59:31;1.70;1.00
5459;DHT22;2752;49.992;8.422;2023-02-28T01:01:58;1.60;1.00
5459;DHT22;2752;49.992;8.422;2023-02-28T01:04:25;1.50;1.00
5459;DHT22;2752;49.992;8.422;2023-02-28T01:06:51;1.50;1.00
5459;DHT22;2752;49.992;8.422;2023-02-28T01:09:18;1.70;1.00
5459;DHT22;2752;49.992;8.422;2023-02-28T01:11:44;1.50;1.00
5459;DHT22;2752;49.992;8.422;2023-02-28T01:14:14;1.40;1.00
5459;DHT22;2752;49.992;8.422;2023-02-28T01:16:41;1.50;1.00
5459;DHT22;2752;49.992;8.422;2023-02-28T01:19:08;1.40;1.00
5459;DHT22;2752;49.992;8.422;2023-02-28T01:21:34;1.60;1.00
5459;DHT22;2752;49.992;8.422;2023-02-28T01:24:02;1.30;1.00
5459;DHT22;2752;49.992;8.422;2023-02-28T01:26:29;1.30;1.00
5459;DHT22;2752;49.992;8.422;2023-02-28T01:28:56;1.10;1.00
5459;DHT22;2752;49.992;8.422;2023-02-28T01:31:24;1.10;1.00
5459;DHT22;2752;49.992;8.422;2023-02-28T01:33:51;1.10;1.00
5459;DHT22;2752;49.992;8.422;2023-02-28T01:36:19;1.10;1.00
5459;DHT22;2752;49.992;8.422;2023-02-28T01:38:46;1.00;1.00
5459;DHT22;2752;49.992;8.422;2023-02-28T01:41:17;0.90;1.00
5459;DHT22;2752;49.992;8.422;2023-02-28T01:43:57;0.90;1.00
5459;DHT22;2752;49.992;8.422;2023-02-28T01:46:25;0.80;1.00
5459;DHT22;2752;49.992;8.422;2023-02-28T01:48:55;0.80;1.00
5459;DHT22;2752;49.992;8.422;2023-02-28T01:51:27;0.70;1.00
5459;DHT22;2752;49.992;8.422;2023-02-28T01:53:58;0.60;1.00
5459;DHT22;2752;49.992;8.422;2023-02-28T01:56:30;0.50;1.00
5459;DHT22;2752;49.992;8.422;2023-02-28T01:58:59;0.60;1.00
5459;DHT22;2752;49.992;8.422;2023-02-28T02:01:29;0.70;1.00
5459;DHT22;2752;49.992;8.422;2023-02-28T02:04:01;0.70;1.00
5459;DHT22;2752;49.992;8.422;2023-02-28T02:06:33;0.60;1.00
5459;DHT22;2752;49.992;8.422;2023-02-28T02:09:01;0.60;1.00
5459;DHT22;2752;49.992;8.422;2023-02-28T02:11:28;0.60;1.00
5459;DHT22;2752;49.992;8.422;2023-02-28T02:14:11;0.50;1.00
5459;DHT22;2752;49.992;8.422;2023-02-28T02:16:51;0.50;1.00
5459;DHT22;2752;49.992;8.422;2023-02-28T02:19:36;0.50;1.00
5459;DHT22;2752;49.992;8.422;2023-02-28T02:22:20;0.40;1.00
5459;DHT22;2752;49.992;8.422;2023-02-28T02:25:16;0.40;1.00
5459;DHT22;2752;49.992;8.422;2023-02-28T02:31:04;0.40;1.00
5459;DHT22;2752;49.992;8.422;2023-02-28T02:34:04;0.30;1.00
5459;DHT22;2752;49.992;8.422;2023-02-28T02:36:34;0.30;1.00
5459;DHT22;2752;49.992;8.422;2023-02-28T02:39:05;0.30;1.00
5459;DHT22;2752;49.992;8.422;2023-02-28T02:41:36;0.30;1.00
5459;DHT22;2752;49.992;8.422;2023-02-28T02:44:07;0.40;1.00
5459;DHT22;2752;49.992;8.422;2023-02-28T02:46:39;0.40;1.00
5459;DHT22;2752;49.992;8.422;2023-02-28T02:49:11;0.30;1.00
5459;DHT22;2752;49.992;8.422;2023-02-28T02:51:40;0.30;1.00
5459;DHT22;2752;49.992;8.422;2023-02-28T02:54:10;0.30;1.00
5459;DHT22;2752;49.992;8.422;2023-02-28T02:56:39;0.30;1.00
5459;DHT22;2752;49.992;8.422;2023-02-28T02:59:10;0.30;1.00
5459;DHT22;2752;49.992;8.422;2023-02-28T03:01:38;0.30;1.00
5459;DHT22;2752;49.992;8.422;2023-02-28T03:04:10;0.20;1.00
5459;DHT22;2752;49.992;8.422;2023-02-28T03:06:38;0.20;1.00
5459;DHT22;2752;49.992;8.422;2023-02-28T03:09:04;0.20;1.00
5459;DHT22;2752;49.992;8.422;2023-02-28T03:11:32;0.20;1.00
5459;DHT22;2752;49.992;8.422;2023-02-28T03:14:10;0.20;1.00
5459;DHT22;2752;49.992;8.422;2023-02-28T03:16:51;0.10;1.00
5459;DHT22;2752;49.992;8.422;2023-02-28T03:19:45;0.10;1.00
5459;DHT22;2752;49.992;8.422;2023-02-28T03:22:34;0.10;1.00
5459;DHT22;2752;49.992;8.422;2023-02-28T03:25:07;0.10;1.00
5459;DHT22;2752;49.992;8.422;2023-02-28T03:27:38;0.00;1.00
5459;DHT22;2752;49.992;8.422;2023-02-28T03:30:11;0.00;1.00
5459;DHT22;2752;49.992;8.422;2023-02-28T03:32:46;0.00;1.00
5459;DHT22;2752;49.992;8.422;2023-02-28T03:35:21;0.20;1.00
5459;DHT22;2752;49.992;8.422;2023-02-28T03:37:51;0.00;1.00
5459;DHT22;2752;49.992;8.422;2023-02-28T03:40:21;0.10;1.00
5459;DHT22;2752;49.992;8.422;2023-02-28T03:42:53;0.00;1.00
5459;DHT22;2752;49.992;8.422;2023-02-28T03:45:25;0.10;1.00
5459;DHT22;2752;49.992;8.422;2023-02-28T03:47:54;0.00;1.00
5459;DHT22;2752;49.992;8.422;2023-02-28T03:50:25;-0.10;1.00
5459;DHT22;2752;49.992;8.422;2023-02-28T03:52:57;-0.10;1.00
5459;DHT22;2752;49.992;8.422;2023-02-28T03:55:30;-0.20;1.00
5459;DHT22;2752;49.992;8.422;2023-02-28T03:58:03;-0.20;1.00
5459;DHT22;2752;49.992;8.422;2023-02-28T04:00:35;-0.20;1.00
5459;DHT22;2752;49.992;8.422;2023-02-28T04:03:03;-0.20;1.00
5459;DHT22;2752;49.992;8.422;2023-02-28T04:05:32;-0.20;1.00
5459;DHT22;2752;49.992;8.422;2023-02-28T04:08:04;-0.10;1.00
5459;DHT22;2752;49.992;8.422;2023-02-28T04:10:30;-0.20;1.00
5459;DHT22;2752;49.992;8.422;2023-02-28T04:12:57;-0.20;1.00
5459;DHT22;2752;49.992;8.422;2023-02-28T04:15:24;-0.20;1.00
5459;DHT22;2752;49.992;8.422;2023-02-28T04:17:52;-0.20;1.00
5459;DHT22;2752;49.992;8.422;2023-02-28T04:20:19;-0.20;1.00
5459;DHT22;2752;49.992;8.422;2023-02-28T04:22:47;-0.20;1.00
5459;DHT22;2752;49.992;8.422;2023-02-28T04:25:13;-0.30;1.00
5459;DHT22;2752;49.992;8.422;2023-02-28T04:27:40;-0.30;1.00
5459;DHT22;2752;49.992;8.422;2023-02-28T04:30:08;-0.40;1.00
5459;DHT22;2752;49.992;8.422;2023-02-28T04:32:35;-0.40;1.00
5459;DHT22;2752;49.992;8.422;2023-02-28T04:35:01;-0.50;1.00
5459;DHT22;2752;49.992;8.422;2023-02-28T04:37:28;-0.40;1.00
5459;DHT22;2752;49.992;8.422;2023-02-28T04:39:56;-0.40;1.00
5459;DHT22;2752;49.992;8.422;2023-02-28T04:42:22;-0.40;1.00
5459;DHT22;2752;49.992;8.422;2023-02-28T04:44:49;-0.40;1.00
5459;DHT22;2752;49.992;8.422;2023-02-28T04:47:16;-0.30;1.00
5459;DHT22;2752;49.992;8.422;2023-02-28T04:49:42;-0.30;1.00
5459;DHT22;2752;49.992;8.422;2023-02-28T04:52:09;-0.40;1.00
5459;DHT22;2752;49.992;8.422;2023-02-28T04:54:36;-0.30;1.00
5459;DHT22;2752;49.992;8.422;2023-02-28T04:57:05;-0.30;1.00
5459;DHT22;2752;49.992;8.422;2023-02-28T04:59:32;-0.20;1.00
5459;DHT22;2752;49.992;8.422;2023-02-28T05:01:59;-0.30;1.00
5459;DHT22;2752;49.992;8.422;2023-02-28T05:04:25;-0.20;1.00
5459;DHT22;2752;49.992;8.422;2023-02-28T05:06:52;-0.20;1.00
5459;DHT22;2752;49.992;8.422;2023-02-28T05:09:18;-0.20;1.00
5459;DHT22;2752;49.992;8.422;2023-02-28T05:11:45;-0.30;1.00
5459;DHT22;2752;49.992;8.422;2023-02-28T05:14:14;-0.20;1.00
5459;DHT22;2752;49.992;8.422;2023-02-28T05:16:40;-0.20;1.00
5459;DHT22;2752;49.992;8.422;2023-02-28T05:19:07;-0.20;1.00
5459;DHT22;2752;49.992;8.422;2023-02-28T05:21:35;-0.20;1.00
5459;DHT22;2752;49.992;8.422;2023-02-28T05:24:04;-0.20;1.00
5459;DHT22;2752;49.992;8.422;2023-02-28T05:26:34;-0.30;1.00
5459;DHT22;2752;49.992;8.422;2023-02-28T05:29:01;-0.30;1.00
5459;DHT22;2752;49.992;8.422;2023-02-28T05:31:28;-0.10;1.00
5459;DHT22;2752;49.992;8.422;2023-02-28T05:33:55;-0.30;1.00
5459;DHT22;2752;49.992;8.422;2023-02-28T05:36:22;-0.30;1.00
5459;DHT22;2752;49.992;8.422;2023-02-28T05:38:49;-0.40;1.00
5459;DHT22;2752;49.992;8.422;2023-02-28T05:41:17;-0.40;1.00
5459;DHT22;2752;49.992;8.422;2023-02-28T05:43:44;-0.40;1.00
5459;DHT22;2752;49.992;8.422;2023-02-28T05:46:11;-0.40;1.00
5459;DHT22;2752;49.992;8.422;2023-02-28T05:48:40;-0.40;1.00
5459;DHT22;2752;49.992;8.422;2023-02-28T05:51:08;-0.30;1.00
5459;DHT22;2752;49.992;8.422;2023-02-28T05:53:35;-0.30;1.00
5459;DHT22;2752;49.992;8.422;2023-02-28T05:56:02;-0.30;1.00
5459;DHT22;2752;49.992;8.422;2023-02-28T05:58:29;-0.40;1.00
5459;DHT22;2752;49.992;8.422;2023-02-28T06:00:56;-0.40;1.00
5459;DHT22;2752;49.992;8.422;2023-02-28T06:03:23;-0.40;1.00
5459;DHT22;2752;49.992;8.422;2023-02-28T06:05:51;-0.40;1.00
5459;DHT22;2752;49.992;8.422;2023-02-28T06:08:18;-0.50;1.00
5459;DHT22;2752;49.992;8.422;2023-02-28T06:10:44;-0.50;1.00
5459;DHT22;2752;49.992;8.422;2023-02-28T06:13:11;-0.40;1.00
5459;DHT22;2752;49.992;8.422;2023-02-28T06:15:38;-0.40;1.00
5459;DHT22;2752;49.992;8.422;2023-02-28T06:18:06;-0.50;1.00
5459;DHT22;2752;49.992;8.422;2023-02-28T06:20:32;-0.50;1.00
5459;DHT22;2752;49.992;8.422;2023-02-28T06:23:01;-0.50;1.00
5459;DHT22;2752;49.992;8.422;2023-02-28T06:25:28;-0.50;1.00
5459;DHT22;2752;49.992;8.422;2023-02-28T06:27:55;-0.50;1.00
5459;DHT22;2752;49.992;8.422;2023-02-28T06:30:22;-0.40;1.00
5459;DHT22;2752;49.992;8.422;2023-02-28T06:32:50;-0.40;1.00
5459;DHT22;2752;49.992;8.422;2023-02-28T06:35:17;-0.40;1.00
5459;DHT22;2752;49.992;8.422;2023-02-28T06:37:43;-0.40;1.00
5459;DHT22;2752;49.992;8.422;2023-02-28T06:40:14;-0.40;1.00
5459;DHT22;2752;49.992;8.422;2023-02-28T06:42:41;-0.30;1.00
5459;DHT22;2752;49.992;8.422;2023-02-28T06:45:09;-0.30;1.00
5459;DHT22;2752;49.992;8.422;2023-02-28T06:47:36;-0.30;1.00
5459;DHT22;2752;49.992;8.422;2023-02-28T06:50:03;-0.30;1.00
5459;DHT22;2752;49.992;8.422;2023-02-28T06:52:30;-0.20;1.00
5459;DHT22;2752;49.992;8.422;2023-02-28T06:54:57;-0.10;1.00
5459;DHT22;2752;49.992;8.422;2023-02-28T06:57:29;-0.10;1.00
5459;DHT22;2752;49.992;8.422;2023-02-28T06:59:57;-0.10;1.00
5459;DHT22;2752;49.992;8.422;2023-02-28T07:02:24;0.00;1.00
5459;DHT22;2752;49.992;8.422;2023-02-28T07:04:51;0.00;1.00
5459;DHT22;2752;49.992;8.422;2023-02-28T07:07:17;0.00;1.00
5459;DHT22;2752;49.992;8.422;2023-02-28T07:09:44;0.00;1.00
5459;DHT22;2752;49.992;8.422;2023-02-28T07:12:11;0.20;1.00
5459;DHT22;2752;49.992;8.422;2023-02-28T07:14:39;0.10;1.00
5459;DHT22;2752;49.992;8.422;2023-02-28T07:17:06;0.20;1.00
5459;DHT22;2752;49.992;8.422;2023-02-28T07:19:33;0.20;1.00
5459;DHT22;2752;49.992;8.422;2023-02-28T07:22:00;0.30;1.00
5459;DHT22;2752;49.992;8.422;2023-02-28T07:24:28;0.40;1.00
5459;DHT22;2752;49.992;8.422;2023-02-28T07:26:55;0.40;1.00
5459;DHT22;2752;49.992;8.422;2023-02-28T07:29:22;0.40;1.00
5459;DHT22;2752;49.992;8.422;2023-02-28T07:31:50;0.50;1.00
5459;DHT22;2752;49.992;8.422;2023-02-28T07:34:18;0.60;1.00
5459;DHT22;2752;49.992;8.422;2023-02-28T07:36:45;0.70;1.00
5459;DHT22;2752;49.992;8.422;2023-02-28T07:39:11;0.90;1.00
5459;DHT22;2752;49.992;8.422;2023-02-28T07:41:38;0.80;1.00
5459;DHT22;2752;49.992;8.422;2023-02-28T07:44:09;0.80;1.00
5459;DHT22;2752;49.992;8.422;2023-02-28T07:46:35;0.80;1.00
5459;DHT22;2752;49.992;8.422;2023-02-28T07:49:04;0.90;1.00
5459;DHT22;2752;49.992;8.422;2023-02-28T07:51:31;1.00;1.00
5459;DHT22;2752;49.992;8.422;2023-02-28T07:53:58;1.10;1.00
5459;DHT22;2752;49.992;8.422;2023-02-28T07:56:24;1.10;1.00
5459;DHT22;2752;49.992;8.422;2023-02-28T07:58:51;1.20;1.00
5459;DHT22;2752;49.992;8.422;2023-02-28T08:01:19;1.20;1.00
5459;DHT22;2752;49.992;8.422;2023-02-28T08:03:45;1.30;1.00
5459;DHT22;2752;49.992;8.422;2023-02-28T08:06:19;1.40;1.00
5459;DHT22;2752;49.992;8.422;2023-02-28T08:08:45;1.50;1.00
5459;DHT22;2752;49.992;8.422;2023-02-28T08:11:13;1.60;1.00
5459;DHT22;2752;49.992;8.422;2023-02-28T08:13:40;1.70;1.00
5459;DHT22;2752;49.992;8.422;2023-02-28T08:16:07;1.70;1.00
5459;DHT22;2752;49.992;8.422;2023-02-28T08:18:35;1.80;1.00
5459;DHT22;2752;49.992;8.422;2023-02-28T08:21:06;1.80;1.00
5459;DHT22;2752;49.992;8.422;2023-02-28T08:23:34;1.90;1.00
5459;DHT22;2752;49.992;8.422;2023-02-28T08:26:01;1.90;1.00
5459;DHT22;2752;49.992;8.422;2023-02-28T08:28:27;2.00;1.00
5459;DHT22;2752;49.992;8.422;2023-02-28T08:30:54;2.10;1.00
5459;DHT22;2752;49.992;8.422;2023-02-28T08:33:22;2.30;1.00
5459;DHT22;2752;49.992;8.422;2023-02-28T08:35:52;2.20;1.00
5459;DHT22;2752;49.992;8.422;2023-02-28T08:38:19;2.30;1.00
5459;DHT22;2752;49.992;8.422;2023-02-28T08:40:46;2.30;1.00
5459;DHT22;2752;49.992;8.422;2023-02-28T08:43:13;2.30;1.00
5459;DHT22;2752;49.992;8.422;2023-02-28T08:45:40;2.50;1.00
5459;DHT22;2752;49.992;8.422;2023-02-28T08:48:06;2.60;1.00
5459;DHT22;2752;49.992;8.422;2023-02-28T08:50:33;2.70;1.00
5459;DHT22;2752;49.992;8.422;2023-02-28T08:53:00;2.70;1.00
5459;DHT22;2752;49.992;8.422;2023-02-28T08:55:26;2.70;1.00
5459;DHT22;2752;49.992;8.422;2023-02-28T08:57:54;3.00;1.00
5459;DHT22;2752;49.992;8.422;2023-02-28T09:00:22;2.80;1.00
5459;DHT22;2752;49.992;8.422;2023-02-28T09:02:48;2.80;1.00
5459;DHT22;2752;49.992;8.422;2023-02-28T09:05:15;2.90;1.00
5459;DHT22;2752;49.992;8.422;2023-02-28T09:07:42;3.00;1.00
5459;DHT22;2752;49.992;8.422;2023-02-28T09:10:09;3.10;1.00
5459;DHT22;2752;49.992;8.422;2023-02-28T09:12:36;3.20;1.00
5459;DHT22;2752;49.992;8.422;2023-02-28T09:15:05;3.40;1.00
5459;DHT22;2752;49.992;8.422;2023-02-28T09:17:32;3.20;1.00
5459;DHT22;2752;49.992;8.422;2023-02-28T09:19:59;3.20;1.00
5459;DHT22;2752;49.992;8.422;2023-02-28T09:22:25;3.20;1.00
5459;DHT22;2752;49.992;8.422;2023-02-28T09:24:52;3.30;1.00
5459;DHT22;2752;49.992;8.422;2023-02-28T09:27:19;3.40;1.00
5459;DHT22;2752;49.992;8.422;2023-02-28T09:29:45;3.40;1.00
5459;DHT22;2752;49.992;8.422;2023-02-28T09:32:14;3.60;1.00
5459;DHT22;2752;49.992;8.422;2023-02-28T09:34:42;3.60;1.00
5459;DHT22;2752;49.992;8.422;2023-02-28T09:37:09;3.60;1.00
5459;DHT22;2752;49.992;8.422;2023-02-28T09:39:35;3.70;1.00
5459;DHT22;2752;49.992;8.422;2023-02-28T09:42:03;3.90;1.00
5459;DHT22;2752;49.992;8.422;2023-02-28T09:44:33;3.70;1.00
5459;DHT22;2752;49.992;8.422;2023-02-28T09:47:07;3.70;1.00
5459;DHT22;2752;49.992;8.422;2023-02-28T09:49:40;3.60;1.00
5459;DHT22;2752;49.992;8.422;2023-02-28T09:52:12;3.60;1.00
5459;DHT22;2752;49.992;8.422;2023-02-28T09:54:40;3.70;1.00
5459;DHT22;2752;49.992;8.422;2023-02-28T09:57:09;3.70;1.00
5459;DHT22;2752;49.992;8.422;2023-02-28T09:59:50;4.00;1.00
5459;DHT22;2752;49.992;8.422;2023-02-28T10:02:39;4.30;1.00
5459;DHT22;2752;49.992;8.422;2023-02-28T10:05:11;4.20;1.00
5459;DHT22;2752;49.992;8.422;2023-02-28T10:07:50;4.30;1.00
5459;DHT22;2752;49.992;8.422;2023-02-28T10:10:23;4.30;1.00
5459;DHT22;2752;49.992;8.422;2023-02-28T10:12:54;4.50;1.00
5459;DHT22;2752;49.992;8.422;2023-02-28T10:15:23;4.40;1.00
5459;DHT22;2752;49.992;8.422;2023-02-28T10:17:54;4.40;1.00
5459;DHT22;2752;49.992;8.422;2023-02-28T10:20:23;4.30;1.00
5459;DHT22;2752;49.992;8.422;2023-02-28T10:22:58;4.20;1.00
5459;DHT22;2752;49.992;8.422;2023-02-28T10:25:33;4.30;1.00
5459;DHT22;2752;49.992;8.422;2023-02-28T10:28:05;4.30;1.00
5459;DHT22;2752;49.992;8.422;2023-02-28T10:30:32;4.50;1.00
5459;DHT22;2752;49.992;8.422;2023-02-28T10:32:58;4.60;1.00
5459;DHT22;2752;49.992;8.422;2023-02-28T10:35:27;4.70;1.00
5459;DHT22;2752;49.992;8.422;2023-02-28T10:37:55;4.90;1.00
5459;DHT22;2752;49.992;8.422;2023-02-28T10:40:29;5.00;1.00
5459;DHT22;2752;49.992;8.422;2023-02-28T10:42:57;4.80;1.00
5459;DHT22;2752;49.992;8.422;2023-02-28T10:45:24;4.90;1.00
5459;DHT22;2752;49.992;8.422;2023-02-28T10:47:54;4.70;1.00
5459;DHT22;2752;49.992;8.422;2023-02-28T10:50:34;4.70;1.00
5459;DHT22;2752;49.992;8.422;2023-02-28T10:53:23;4.40;1.00
5459;DHT22;2752;49.992;8.422;2023-02-28T10:55:57;4.40;1.00
5459;DHT22;2752;49.992;8.422;2023-02-28T10:58:25;4.60;1.00
5459;DHT22;2752;49.992;8.422;2023-02-28T11:00:53;4.70;1.00
5459;DHT22;2752;49.992;8.422;2023-02-28T11:03:25;4.70;1.00
5459;DHT22;2752;49.992;8.422;2023-02-28T11:05:53;5.00;1.00
5459;DHT22;2752;49.992;8.422;2023-02-28T11:08:20;5.10;1.00
5459;DHT22;2752;49.992;8.422;2023-02-28T11:10:48;5.30;1.00
5459;DHT22;2752;49.992;8.422;2023-02-28T11:13:21;5.20;1.00
5459;DHT22;2752;49.992;8.422;2023-02-28T11:15:51;5.20;1.00
5459;DHT22;2752;49.992;8.422;2023-02-28T11:18:22;5.00;1.00
5459;DHT22;2752;49.992;8.422;2023-02-28T11:20:53;5.10;1.00
5459;DHT22;2752;49.992;8.422;2023-02-28T11:23:21;5.00;1.00
5459;DHT22;2752;49.992;8.422;2023-02-28T11:25:51;5.20;1.00
5459;DHT22;2752;49.992;8.422;2023-02-28T11:28:26;5.00;1.00
5459;DHT22;2752;49.992;8.422;2023-02-28T11:31:15;5.50;1.00
5459;DHT22;2752;49.992;8.422;2023-02-28T11:33:45;5.40;1.00
5459;DHT22;2752;49.992;8.422;2023-02-28T11:36:19;5.10;1.00
5459;DHT22;2752;49.992;8.422;2023-02-28T11:38:47;5.20;1.00
5459;DHT22;2752;49.992;8.422;2023-02-28T11:41:29;5.40;1.00
5459;DHT22;2752;49.992;8.422;2023-02-28T11:44:20;5.70;1.00
5459;DHT22;2752;49.992;8.422;2023-02-28T11:46:52;5.80;1.00
5459;DHT22;2752;49.992;8.422;2023-02-28T11:49:28;5.90;1.00
5459;DHT22;2752;49.992;8.422;2023-02-28T11:52:00;6.10;1.00
5459;DHT22;2752;49.992;8.422;2023-02-28T11:55:00;6.00;1.00
5459;DHT22;2752;49.992;8.422;2023-02-28T11:57:35;6.00;1.00
5459;DHT22;2752;49.992;8.422;2023-02-28T12:00:15;5.90;1.00
5459;DHT22;2752;49.992;8.422;2023-02-28T12:02:59;5.70;1.00
5459;DHT22;2752;49.992;8.422;2023-02-28T12:05:32;5.50;1.00
5459;DHT22;2752;49.992;8.422;2023-02-28T12:08:09;5.70;1.00
5459;DHT22;2752;49.992;8.422;2023-02-28T12:10:49;5.70;1.00
5459;DHT22;2752;49.992;8.422;2023-02-28T12:13:23;5.90;1.00
5459;DHT22;2752;49.992;8.422;2023-02-28T12:19:06;5.90;1.00
5459;DHT22;2752;49.992;8.422;2023-02-28T12:21:46;6.00;1.00
5459;DHT22;2752;49.992;8.422;2023-02-28T12:24:26;6.30;1.00
5459;DHT22;2752;49.992;8.422;2023-02-28T12:26:59;6.40;1.00
5459;DHT22;2752;49.992;8.422;2023-02-28T12:29:29;6.30;1.00
5459;DHT22;2752;49.992;8.422;2023-02-28T12:32:01;6.40;1.00
5459;DHT22;2752;49.992;8.422;2023-02-28T12:34:34;6.30;1.00
5459;DHT22;2752;49.992;8.422;2023-02-28T12:37:06;6.40;1.00
5459;DHT22;2752;49.992;8.422;2023-02-28T12:39:39;6.40;1.00
5459;DHT22;2752;49.992;8.422;2023-02-28T12:42:11;6.30;1.00
5459;DHT22;2752;49.992;8.422;2023-02-28T12:44:43;6.20;1.00
5459;DHT22;2752;49.992;8.422;2023-02-28T12:47:15;6.20;1.00
5459;DHT22;2752;49.992;8.422;2023-02-28T12:49:45;6.10;1.00
5459;DHT22;2752;49.992;8.422;2023-02-28T12:52:15;5.90;1.00
5459;DHT22;2752;49.992;8.422;2023-02-28T12:54:50;5.90;1.00
5459;DHT22;2752;49.992;8.422;2023-02-28T12:57:22;6.00;1.00
5459;DHT22;2752;49.992;8.422;2023-02-28T12:59:54;6.00;1.00
5459;DHT22;2752;49.992;8.422;2023-02-28T13:02:45;5.90;1.00
5459;DHT22;2752;49.992;8.422;2023-02-28T13:05:45;6.00;1.00
5459;DHT22;2752;49.992;8.422;2023-02-28T13:08:41;6.20;1.00
5459;DHT22;2752;49.992;8.422;2023-02-28T13:11:26;6.30;1.00
5459;DHT22;2752;49.992;8.422;2023-02-28T13:13:58;6.50;1.00
5459;DHT22;2752;49.992;8.422;2023-02-28T13:16:25;6.40;1.00
5459;DHT22;2752;49.992;8.422;2023-02-28T13:18:52;6.50;1.00
5459;DHT22;2752;49.992;8.422;2023-02-28T13:21:42;6.50;1.00
5459;DHT22;2752;49.992;8.422;2023-02-28T13:24:10;6.50;1.00
5459;DHT22;2752;49.992;8.422;2023-02-28T13:29:53;6.50;1.00
5459;DHT22;2752;49.992;8.422;2023-02-28T13:32:33;6.50;1.00
5459;DHT22;2752;49.992;8.422;2023-02-28T13:38:13;6.70;1.00
5459;DHT22;2752;49.992;8.422;2023-02-28T13:40:41;6.70;1.00
5459;DHT22;2752;49.992;8.422;2023-02-28T13:43:09;6.70;1.00
5459;DHT22;2752;49.992;8.422;2023-02-28T13:45:37;6.70;1.00
5459;DHT22;2752;49.992;8.422;2023-02-28T13:48:16;6.60;1.00
5459;DHT22;2752;49.992;8.422;2023-02-28T13:50:44;6.60;1.00
5459;DHT22;2752;49.992;8.422;2023-02-28T13:53:29;6.70;1.00
5459;DHT22;2752;49.992;8.422;2023-02-28T13:56:07;6.60;1.00
5459;DHT22;2752;49.992;8.422;2023-02-28T13:58:43;6.70;1.00
5459;DHT22;2752;49.992;8.422;2023-02-28T14:01:24;6.70;1.00
5459;DHT22;2752;49.992;8.422;2023-02-28T14:04:29;6.60;1.00
5459;DHT22;2752;49.992;8.422;2023-02-28T14:07:01;6.70;1.00
5459;DHT22;2752;49.992;8.422;2023-02-28T14:09:29;6.50;1.00
5459;DHT22;2752;49.992;8.422;2023-02-28T14:11:58;6.50;1.00
5459;DHT22;2752;49.992;8.422;2023-02-28T14:14:57;6.40;1.00
5459;DHT22;2752;49.992;8.422;2023-02-28T14:17:24;6.30;1.00
5459;DHT22;2752;49.992;8.422;2023-02-28T14:19:52;6.50;1.00
5459;DHT22;2752;49.992;8.422;2023-02-28T14:22:48;6.60;1.00
5459;DHT22;2752;49.992;8.422;2023-02-28T14:25:24;6.60;1.00
5459;DHT22;2752;49.992;8.422;2023-02-28T14:28:05;6.50;1.00
5459;DHT22;2752;49.992;8.422;2023-02-28T14:31:00;6.60;1.00
5459;DHT22;2752;49.992;8.422;2023-02-28T14:33:35;6.70;1.00
5459;DHT22;2752;49.992;8.422;2023-02-28T14:36:12;6.60;1.00
5459;DHT22;2752;49.992;8.422;2023-02-28T14:38:43;6.60;1.00
5459;DHT22;2752;49.992;8.422;2023-02-28T14:41:18;6.40;1.00
5459;DHT22;2752;49.992;8.422;2023-02-28T14:43:52;6.30;1.00
5459;DHT22;2752;49.992;8.422;2023-02-28T14:46:21;6.50;1.00
5459;DHT22;2752;49.992;8.422;2023-02-28T14:48:50;6.40;1.00
5459;DHT22;2752;49.992;8.422;2023-02-28T14:51:21;6.40;1.00
5459;DHT22;2752;49.992;8.422;2023-02-28T14:53:51;6.40;1.00
5459;DHT22;2752;49.992;8.422;2023-02-28T14:56:21;6.40;1.00
5459;DHT22;2752;49.992;8.422;2023-02-28T14:58:51;6.30;1.00
5459;DHT22;2752;49.992;8.422;2023-02-28T15:01:22;6.40;1.00
5459;DHT22;2752;49.992;8.422;2023-02-28T15:03:57;6.50;1.00
5459;DHT22;2752;49.992;8.422;2023-02-28T15:06:24;6.50;1.00
5459;DHT22;2752;49.992;8.422;2023-02-28T15:09:07;6.60;1.00
5459;DHT22;2752;49.992;8.422;2023-02-28T15:11:33;6.60;1.00
5459;DHT22;2752;49.992;8.422;2023-02-28T15:14:01;6.50;1.00
5459;DHT22;2752;49.992;8.422;2023-02-28T15:16:33;6.70;1.00
5459;DHT22;2752;49.992;8.422;2023-02-28T15:19:03;6.60;1.00
5459;DHT22;2752;49.992;8.422;2023-02-28T15:21:34;6.60;1.00
5459;DHT22;2752;49.992;8.422;2023-02-28T15:24:05;6.20;1.00
5459;DHT22;2752;49.992;8.422;2023-02-28T15:26:36;6.20;1.00
5459;DHT22;2752;49.992;8.422;2023-02-28T15:29:06;6.00;1.00
5459;DHT22;2752;49.992;8.422;2023-02-28T15:31:40;6.00;1.00
5459;DHT22;2752;49.992;8.422;2023-02-28T15:34:18;6.10;1.00
5459;DHT22;2752;49.992;8.422;2023-02-28T15:36:45;6.20;1.00
5459;DHT22;2752;49.992;8.422;2023-02-28T15:39:20;6.10;1.00
5459;DHT22;2752;49.992;8.422;2023-02-28T15:41:47;6.20;1.00
5459;DHT22;2752;49.992;8.422;2023-02-28T15:44:15;6.20;1.00
5459;DHT22;2752;49.992;8.422;2023-02-28T15:46:54;6.20;1.00
5459;DHT22;2752;49.992;8.422;2023-02-28T15:49:22;6.30;1.00
5459;DHT22;2752;49.992;8.422;2023-02-28T15:51:51;6.20;1.00
5459;DHT22;2752;49.992;8.422;2023-02-28T15:54:20;6.20;1.00
5459;DHT22;2752;49.992;8.422;2023-02-28T15:56:51;6.20;1.00
5459;DHT22;2752;49.992;8.422;2023-02-28T15:59:22;6.10;1.00
5459;DHT22;2752;49.992;8.422;2023-02-28T16:02:12;6.00;1.00
5459;DHT22;2752;49.992;8.422;2023-02-28T16:04:55;6.00;1.00
5459;DHT22;2752;49.992;8.422;2023-02-28T16:07:22;5.90;1.00
5459;DHT22;2752;49.992;8.422;2023-02-28T16:09:49;5.80;1.00
5459;DHT22;2752;49.992;8.422;2023-02-28T16:12:16;5.80;1.00
5459;DHT22;2752;49.992;8.422;2023-02-28T16:14:43;5.80;1.00
5459;DHT22;2752;49.992;8.422;2023-02-28T16:17:19;5.80;1.00
5459;DHT22;2752;49.992;8.422;2023-02-28T16:19:46;5.80;1.00
5459;DHT22;2752;49.992;8.422;2023-02-28T16:22:13;5.90;1.00
5459;DHT22;2752;49.992;8.422;2023-02-28T16:24:40;5.80;1.00
5459;DHT22;2752;49.992;8.422;2023-02-28T16:27:15;5.70;1.00
5459;DHT22;2752;49.992;8.422;2023-02-28T16:29:42;5.70;1.00
5459;DHT22;2752;49.992;8.422;2023-02-28T16:32:12;5.60;1.00
5459;DHT22;2752;49.992;8.422;2023-02-28T16:34:42;5.50;1.00
5459;DHT22;2752;49.992;8.422;2023-02-28T16:37:12;5.50;1.00
5459;DHT22;2752;49.992;8.422;2023-02-28T16:39:39;5.50;1.00
5459;DHT22;2752;49.992;8.422;2023-02-28T16:42:06;5.40;1.00
5459;DHT22;2752;49.992;8.422;2023-02-28T16:44:34;5.30;1.00
5459;DHT22;2752;49.992;8.422;2023-02-28T16:47:03;5.20;1.00
5459;DHT22;2752;49.992;8.422;2023-02-28T16:49:30;5.20;1.00
5459;DHT22;2752;49.992;8.422;2023-02-28T16:51:58;5.20;1.00
5459;DHT22;2752;49.992;8.422;2023-02-28T16:54:25;5.20;1.00
5459;DHT22;2752;49.992;8.422;2023-02-28T16:56:52;5.10;1.00
5459;DHT22;2752;49.992;8.422;2023-02-28T16:59:21;5.00;1.00
5459;DHT22;2752;49.992;8.422;2023-02-28T17:01:49;4.90;1.00
5459;DHT22;2752;49.992;8.422;2023-02-28T17:04:15;4.80;1.00
5459;DHT22;2752;49.992;8.422;2023-02-28T17:06:42;4.80;1.00